Weather at Comodoro Arturo Merino Benítez International Airport

Public forecast

Using degrees Celsius for public forecast. Weather courtesy of forecast.io.

Current aviation weather report (METAR) for Comodoro Arturo Merino Benítez International Airport

Report is more than 6 hours old.

2022/11/14 15:00 (retrieved 2 years ago)

SCEL 141500Z 13004KT 040V200 CAVOK 23/04 Q1016 NOSIG

Aviation forecast (TAF) for Comodoro Arturo Merino Benítez International Airport

Forecast is more than 12 hours old.

2023/02/22 18:00 (retrieved 1 year ago)

TAF SCEL 221600Z 2218/2318 21015KT CAVOK TX31/2219Z TN15/2310Z BECMG 2302/2304 16005KT TEMPO 2308/2314 VRB02KT 6000 BECMG 2315/2317 20012KT